UKLLUKLI

Guest
Details From UKLL - Lviv Intl
To UKLI - Ivano Frankivsk Intl
Flight Number -
Tags Generated
Created
Modified
Stats Distance 63 nm / 116 km
Max Altitude 0 ft / 0 m
Waypoints 2
Social Downloads 0
Likes 0
Share VATSIM

Download

Looking for another format? Having issues loading an existing format? Contact us
Advertisement - Login to hide

Notes

Generated

Route

UKLL UKLI

ID Type Via Altitude Latitude Longitude Leg Dist Tot Dist Heading (true) Name
O UKLL APT - 0 ft / 0 m 49.82083˚ 23.94389˚ - 0 nm - -
O UKLI APT - 0 ft / 0 m 48.88667˚ 24.67000˚ 62 nm 62 nm 153° / 153° -

Altitude Profile

Advertisement - Login to hide

UKLL

Details ICAO UKLL (LWO)
Name LVIV INTL
Region Ukraine
Timezone Europe/Kiev (UTC+2.0)
Stats Elevation 1,071 ft / 326 m (AMSL)
Location 49.812638° 23.956111°
Runways 1
Magnetic Variation 6.101° E

METAR

UKLL 181900Z 33007MPS 9999 OVC011 M03/M05 Q1022 R31/190070 NOSIG

Decode

TAF

TAF UKLL 181704Z 1818/1918 33004MPS 4000 BR SCT003 OVC006 TEMPO 1818/1906 0400 -SHSN FZFG BKN002 BKN020CB BECMG 1906/1907 29004MPS OVC007 TEMPO 1907/1918 1100 -SHSN BR BKN004 BKN015CB TXM02/1912Z TNM05/1903Z

Decode

Departure Runways

ID Width Length Bearing (true) Bearing (mag) Surface Threshold Offset Overrun Length
13 148 ft / 45 m 8,300 ft / 2,530 m 136.09° 129.99° Asphalt 0 ft / 0 m 160 ft / 49 m
31 148 ft / 45 m 8,300 ft / 2,530 m 316.11° 310.01° Asphalt 0 ft / 0 m 145 ft / 44 m

UKLI

Details ICAO UKLI (IFO)
Name IVANO FRANKIVSK INTL
Region Ukraine
Timezone Europe/Kiev (UTC+2.0)
Stats Elevation 919 ft / 280 m (AMSL)
Location 48.884167° 24.686667°
Runways 1
Magnetic Variation 6.086° E

METAR

UKLI 181900Z 29004MPS 260V320 9999 OVC020 M01/M03 Q1021 R28/190068 NOSIG

Decode

TAF

Not found

Destination Runways

ID Width Length Bearing (true) Bearing (mag) Surface Threshold Offset Overrun Length
10 144 ft / 44 m 8,204 ft / 2,501 m 102.84° 96.75° Concrete 0 ft / 0 m 0 ft / 0 m
28 144 ft / 44 m 8,204 ft / 2,501 m 282.86° 276.77° Concrete 0 ft / 0 m 0 ft / 0 m

Approach Navaids

Runway Type Ident Frequency Range Bearing (true) Bearing (mag) Slope Elevation
10 Localiser IIV 108.70 MHz 18 nm / 33 km 103.85° 97.77° - 919 ft / 280 m (AMSL)
10 Glidescope IIV 108.70 MHz 10 nm / 19 km 102.85° 96.76° 3.00° 919 ft / 280 m (AMSL)
28 Localiser IIF 109.30 MHz 18 nm / 33 km 283.06° 276.98° - 919 ft / 280 m (AMSL)
28 Glidescope IIF 109.30 MHz 10 nm / 19 km 282.85° 276.76° 3.00° 919 ft / 280 m (AMSL)

Popular Alternatives